Time;durP1;ratioP1;P1;durP2;ratioP2;P2;SDS_P1;SDS_P2;PMS_P1;PMS_P2;Temp;Humidity;BMP_temperature;BMP_pressure;BME280_temperature;BME280_humidity;BME280_pressure;Samples;Min_cycle;Max_cycle;Signal;HPM_P1;HPM_P2
2023/06/17 00:02:15;;;;;;;;;;;20.50;58.20;;;;;;4987828;28;20375;-68
2023/06/17 00:04:40;;;;;;;;;;;20.50;58.50;;;;;;4987857;28;20329;-68
2023/06/17 00:07:06;;;;;;;;;;;20.50;58.60;;;;;;4987684;28;19918;-68
2023/06/17 00:09:31;;;;;;;;;;;20.40;58.50;;;;;;4968461;28;19917;-69
2023/06/17 00:11:57;;;;;;;;;;;20.40;58.40;;;;;;4974990;28;19964;-68
2023/06/17 00:14:23;;;;;;;;;;;20.40;58.40;;;;;;4987545;28;19918;-69
2023/06/17 00:16:49;;;;;;;;;;;20.40;58.60;;;;;;4987508;28;19983;-68
2023/06/17 00:19:15;;;;;;;;;;;20.30;58.60;;;;;;4987760;28;19914;-69
2023/06/17 00:21:49;;;;;;;;;;;20.30;58.60;;;;;;4987131;28;20386;-68
2023/06/17 00:24:17;;;;;;;;;;;20.30;58.70;;;;;;5088230;28;19920;-68
2023/06/17 00:26:42;;;;;;;;;;;20.30;58.90;;;;;;5089671;28;19943;-68
2023/06/17 00:29:08;;;;;;;;;;;20.20;58.90;;;;;;5088856;28;19912;-68
2023/06/17 00:31:33;;;;;;;;;;;20.20;58.90;;;;;;5023198;28;20681;-68
2023/06/17 00:33:59;;;;;;;;;;;20.20;58.90;;;;;;4987591;28;19913;-69
2023/06/17 00:36:25;;;;;;;;;;;20.10;58.90;;;;;;4987265;28;20349;-68
2023/06/17 00:38:50;;;;;;;;;;;20.10;58.90;;;;;;4987116;28;20298;-69
2023/06/17 00:41:16;;;;;;;;;;;20.10;59.00;;;;;;4987640;28;20508;-68
2023/06/17 00:43:42;;;;;;;;;;;20.00;59.10;;;;;;4987281;28;19914;-69
2023/06/17 00:46:08;;;;;;;;;;;20.10;59.30;;;;;;4986999;28;19921;-68
2023/06/17 00:48:34;;;;;;;;;;;20.00;59.30;;;;;;4987038;28;19914;-69
2023/06/17 00:51:01;;;;;;;;;;;20.00;59.00;;;;;;4993424;28;19918;-68
2023/06/17 00:53:27;;;;;;;;;;;20.00;59.30;;;;;;5006491;28;19917;-68
2023/06/17 00:55:53;;;;;;;;;;;19.90;59.30;;;;;;5006531;28;19920;-68
2023/06/17 00:58:19;;;;;;;;;;;19.90;59.30;;;;;;5006470;28;20000;-70
2023/06/17 01:00:44;;;;;;;;;;;19.90;59.40;;;;;;5000653;28;19982;-68
2023/06/17 01:03:10;;;;;;;;;;;19.90;59.60;;;;;;4985781;28;19921;-68
2023/06/17 01:05:37;;;;;;;;;;;19.80;59.70;;;;;;4986688;28;19950;-68
2023/06/17 01:08:09;;;;;;;;;;;19.80;59.70;;;;;;4985301;28;19940;-69
2023/06/17 01:10:46;;;;;;;;;;;19.80;59.80;;;;;;4983884;28;20282;-68
2023/06/17 01:13:15;;;;;;;;;;;19.80;59.80;;;;;;4986798;28;19914;-68
2023/06/17 01:15:41;;;;;;;;;;;19.70;59.70;;;;;;4984631;28;19909;-68
2023/06/17 01:18:07;;;;;;;;;;;19.70;59.80;;;;;;4967360;28;20013;-69
2023/06/17 01:20:33;;;;;;;;;;;19.70;59.70;;;;;;4973999;28;19960;-68
2023/06/17 01:22:59;;;;;;;;;;;19.70;59.90;;;;;;4989599;28;20352;-69
2023/06/17 01:25:29;;;;;;;;;;;19.60;59.90;;;;;;5086910;28;20431;-68
2023/06/17 01:28:13;;;;;;;;;;;19.60;59.90;;;;;;5073628;28;19916;-68
2023/06/17 01:30:39;;;;;;;;;;;19.60;59.90;;;;;;5061753;28;19970;-68
2023/06/17 01:33:04;;;;;;;;;;;19.50;60.00;;;;;;4985696;28;19913;-70
2023/06/17 01:35:31;;;;;;;;;;;19.50;60.00;;;;;;4986354;28;20768;-69
2023/06/17 01:38:04;;;;;;;;;;;19.50;60.10;;;;;;4979991;28;19968;-69
2023/06/17 01:40:30;;;;;;;;;;;19.40;60.10;;;;;;4967109;28;20001;-68
2023/06/17 01:42:57;;;;;;;;;;;19.40;60.30;;;;;;4966800;28;20008;-68
2023/06/17 01:45:23;;;;;;;;;;;19.40;60.30;;;;;;4966757;28;19997;-70
2023/06/17 01:47:49;;;;;;;;;;;19.40;60.50;;;;;;4986437;28;20008;-69
2023/06/17 01:50:19;;;;;;;;;;;19.40;60.60;;;;;;4987305;28;19922;-70
2023/06/17 01:52:45;;;;;;;;;;;19.40;60.60;;;;;;4988148;28;20008;-70
2023/06/17 01:55:11;;;;;;;;;;;19.30;60.40;;;;;;4986206;28;19914;-68
2023/06/17 01:57:36;;;;;;;;;;;19.30;60.70;;;;;;4986040;28;19921;-68
2023/06/17 02:00:02;;;;;;;;;;;19.30;60.50;;;;;;4986285;28;19927;-69
2023/06/17 02:02:27;;;;;;;;;;;19.20;60.70;;;;;;4986370;28;19914;-68
2023/06/17 02:04:53;;;;;;;;;;;19.20;60.80;;;;;;4984830;28;19955;-69
2023/06/17 02:07:19;;;;;;;;;;;19.20;60.80;;;;;;4984550;28;19963;-69
2023/06/17 02:09:45;;;;;;;;;;;19.10;61.40;;;;;;4966716;28;19914;-68
2023/06/17 02:12:11;;;;;;;;;;;19.10;60.70;;;;;;4966509;28;19983;-69
2023/06/17 02:14:36;;;;;;;;;;;19.10;60.90;;;;;;4966770;28;20355;-69
2023/06/17 02:17:03;;;;;;;;;;;19.10;60.80;;;;;;4981989;28;19963;-70
2023/06/17 02:19:31;;;;;;;;;;;19.10;60.90;;;;;;5004315;28;19921;-68
2023/06/17 02:21:57;;;;;;;;;;;19.10;61.10;;;;;;4989125;28;19918;-68
2023/06/17 02:24:23;;;;;;;;;;;19.00;61.00;;;;;;4984738;28;19924;-68
2023/06/17 02:26:49;;;;;;;;;;;19.00;61.20;;;;;;4983861;28;19914;-68
2023/06/17 02:29:16;;;;;;;;;;;19.00;61.90;;;;;;5024182;28;19916;-69
2023/06/17 02:31:41;;;;;;;;;;;19.00;61.20;;;;;;4985707;28;20255;-69
2023/06/17 02:34:06;;;;;;;;;;;18.90;61.20;;;;;;4985488;28;19925;-68
2023/06/17 02:36:32;;;;;;;;;;;18.90;61.20;;;;;;4985334;28;20006;-69
2023/06/17 02:38:58;;;;;;;;;;;18.90;61.30;;;;;;4970936;28;19921;-69
2023/06/17 02:41:23;;;;;;;;;;;18.90;61.40;;;;;;4966193;28;19937;-68
2023/06/17 02:43:49;;;;;;;;;;;18.90;61.40;;;;;;4964931;28;20368;-69
2023/06/17 02:46:15;;;;;;;;;;;18.80;61.40;;;;;;4975833;28;19920;-68
2023/06/17 02:48:41;;;;;;;;;;;18.80;61.50;;;;;;4988645;28;20363;-70
2023/06/17 02:51:07;;;;;;;;;;;18.80;61.60;;;;;;4992582;28;19920;-68
2023/06/17 02:53:33;;;;;;;;;;;18.80;61.50;;;;;;4988222;28;20665;-68
2023/06/17 02:55:58;;;;;;;;;;;18.70;61.40;;;;;;4988324;28;20008;-68
2023/06/17 02:58:25;;;;;;;;;;;18.70;61.60;;;;;;4988633;28;20025;-69
2023/06/17 03:00:53;;;;;;;;;;;18.70;61.80;;;;;;4988674;28;19913;-68
2023/06/17 03:03:19;;;;;;;;;;;18.70;61.70;;;;;;4988764;28;20359;-68
2023/06/17 03:05:44;;;;;;;;;;;18.70;61.90;;;;;;4988462;28;19913;-68
2023/06/17 03:08:10;;;;;;;;;;;18.60;61.90;;;;;;4980339;28;19925;-69
2023/06/17 03:10:35;;;;;;;;;;;18.60;61.90;;;;;;4968850;28;19920;-68
2023/06/17 03:13:01;;;;;;;;;;;18.60;61.90;;;;;;4968740;28;19914;-69
2023/06/17 03:15:27;;;;;;;;;;;18.60;62.00;;;;;;4969177;28;19925;-68
2023/06/17 03:17:53;;;;;;;;;;;18.60;62.20;;;;;;4988308;28;19997;-68
2023/06/17 03:20:20;;;;;;;;;;;18.50;62.10;;;;;;4989722;28;20004;-68
2023/06/17 03:22:47;;;;;;;;;;;18.50;62.20;;;;;;4984682;28;20434;-69
2023/06/17 03:25:12;;;;;;;;;;;18.50;62.10;;;;;;4988032;28;20279;-68
2023/06/17 03:27:38;;;;;;;;;;;18.50;62.10;;;;;;5002298;28;19918;-69
2023/06/17 03:30:04;;;;;;;;;;;18.50;62.10;;;;;;4988365;28;19914;-69
2023/06/17 03:32:29;;;;;;;;;;;18.50;62.10;;;;;;5057073;28;20553;-68
2023/06/17 03:34:56;;;;;;;;;;;18.50;62.20;;;;;;5090773;28;20029;-68
2023/06/17 03:37:22;;;;;;;;;;;18.40;62.20;;;;;;5082138;28;20313;-68
2023/06/17 03:39:47;;;;;;;;;;;18.40;62.20;;;;;;4987871;28;19918;-69
2023/06/17 03:42:14;;;;;;;;;;;18.40;62.30;;;;;;4988109;28;19941;-68
2023/06/17 03:44:40;;;;;;;;;;;18.40;62.30;;;;;;4986559;28;19964;-70
2023/06/17 03:47:06;;;;;;;;;;;18.40;62.40;;;;;;4987567;28;19964;-69
2023/06/17 03:49:31;;;;;;;;;;;18.40;62.50;;;;;;4988115;28;19920;-68
2023/06/17 03:51:57;;;;;;;;;;;18.40;62.50;;;;;;4991396;28;19952;-69
2023/06/17 03:54:22;;;;;;;;;;;18.30;62.50;;;;;;4987685;28;19914;-69
2023/06/17 03:56:48;;;;;;;;;;;18.30;62.50;;;;;;4986826;28;19918;-69
2023/06/17 03:59:15;;;;;;;;;;;18.30;62.60;;;;;;4987561;28;20355;-69
2023/06/17 04:01:41;;;;;;;;;;;18.30;62.70;;;;;;4987727;28;19917;-68
2023/06/17 04:04:07;;;;;;;;;;;18.30;62.60;;;;;;4987758;28;19914;-68
2023/06/17 04:06:33;;;;;;;;;;;18.30;62.70;;;;;;4985938;28;19917;-68
2023/06/17 04:08:59;;;;;;;;;;;18.20;62.70;;;;;;4979891;28;20270;-70
2023/06/17 04:11:25;;;;;;;;;;;18.20;62.60;;;;;;5006908;28;19914;-70
2023/06/17 04:13:50;;;;;;;;;;;18.20;62.70;;;;;;5006963;28;19920;-69
2023/06/17 04:16:16;;;;;;;;;;;18.20;62.70;;;;;;4992411;28;19918;-70
2023/06/17 04:18:41;;;;;;;;;;;18.20;62.70;;;;;;4968040;28;19949;-69
2023/06/17 04:21:07;;;;;;;;;;;18.20;62.80;;;;;;4979528;28;19914;-69
2023/06/17 04:23:32;;;;;;;;;;;18.20;62.90;;;;;;4986377;28;20338;-69
2023/06/17 04:25:58;;;;;;;;;;;18.20;62.90;;;;;;4986821;28;19918;-70
2023/06/17 04:28:23;;;;;;;;;;;18.20;63.00;;;;;;4985214;28;19970;-70
2023/06/17 04:30:51;;;;;;;;;;;18.20;63.10;;;;;;4987092;28;20649;-69
2023/06/17 04:33:17;;;;;;;;;;;18.20;63.00;;;;;;4987471;28;19916;-69
2023/06/17 04:35:42;;;;;;;;;;;18.20;63.00;;;;;;4987405;28;19913;-69
2023/06/17 04:38:11;;;;;;;;;;;18.20;63.30;;;;;;4987432;28;19917;-69
2023/06/17 04:40:36;;;;;;;;;;;18.20;63.20;;;;;;4987446;28;19914;-69
2023/06/17 04:43:02;;;;;;;;;;;18.20;63.10;;;;;;4985739;28;19968;-69
2023/06/17 04:45:28;;;;;;;;;;;18.20;63.20;;;;;;4986743;28;19914;-70
2023/06/17 04:47:53;;;;;;;;;;;18.10;63.20;;;;;;4987146;28;20327;-69
2023/06/17 04:50:19;;;;;;;;;;;18.10;63.20;;;;;;4986657;28;19956;-68
2023/06/17 04:52:50;;;;;;;;;;;18.10;63.20;;;;;;4989004;28;20420;-68
2023/06/17 04:55:18;;;;;;;;;;;18.10;63.20;;;;;;4987116;28;19920;-68
2023/06/17 04:57:44;;;;;;;;;;;18.10;63.20;;;;;;4987268;28;19916;-69
2023/06/17 05:00:10;;;;;;;;;;;18.10;63.20;;;;;;4987074;28;20497;-68
2023/06/17 05:02:36;;;;;;;;;;;18.10;63.30;;;;;;4986959;28;19917;-68
2023/06/17 05:05:02;;;;;;;;;;;18.10;63.30;;;;;;4986555;28;20359;-69
2023/06/17 05:07:27;;;;;;;;;;;18.10;63.10;;;;;;4982973;28;19961;-68
2023/06/17 05:09:53;;;;;;;;;;;18.10;63.30;;;;;;4967640;28;19910;-69
2023/06/17 05:12:18;;;;;;;;;;;18.10;63.30;;;;;;4967382;28;20005;-68
2023/06/17 05:14:44;;;;;;;;;;;18.10;63.30;;;;;;4967493;28;19910;-68
2023/06/17 05:17:09;;;;;;;;;;;18.10;62.90;;;;;;4994408;28;19912;-70
2023/06/17 05:19:35;;;;;;;;;;;18.10;62.90;;;;;;4985577;28;19914;-69
2023/06/17 05:22:00;;;;;;;;;;;18.10;62.90;;;;;;4981670;28;19921;-68
2023/06/17 05:24:26;;;;;;;;;;;18.10;63.00;;;;;;4986280;28;19918;-68
2023/06/17 05:26:52;;;;;;;;;;;18.10;63.00;;;;;;4986354;28;20024;-68
2023/06/17 05:29:17;;;;;;;;;;;18.10;63.00;;;;;;4986392;28;20008;-68
2023/06/17 05:31:43;;;;;;;;;;;18.10;62.90;;;;;;4986616;28;20282;-68
2023/06/17 05:34:08;;;;;;;;;;;18.10;62.90;;;;;;5071565;28;20318;-69
2023/06/17 05:36:34;;;;;;;;;;;18.10;63.00;;;;;;5088510;28;19912;-69
2023/06/17 05:39:00;;;;;;;;;;;18.10;62.90;;;;;;5009758;28;19913;-69
2023/06/17 05:41:26;;;;;;;;;;;18.10;62.90;;;;;;4986512;28;19952;-69
2023/06/17 05:43:52;;;;;;;;;;;18.20;62.90;;;;;;4984949;28;20004;-70
2023/06/17 05:46:17;;;;;;;;;;;18.20;63.00;;;;;;4985958;28;20022;-68
2023/06/17 05:48:43;;;;;;;;;;;18.20;62.90;;;;;;4986447;28;19983;-69
2023/06/17 05:51:08;;;;;;;;;;;18.20;63.00;;;;;;4989894;28;19921;-69
2023/06/17 05:53:34;;;;;;;;;;;18.20;62.90;;;;;;4986268;28;20025;-69
2023/06/17 05:55:59;;;;;;;;;;;18.20;62.90;;;;;;4986110;28;19914;-68
2023/06/17 05:58:25;;;;;;;;;;;18.20;62.90;;;;;;4984435;28;19921;-68
2023/06/17 06:00:50;;;;;;;;;;;18.20;62.70;;;;;;4986144;28;19959;-69
2023/06/17 06:03:16;;;;;;;;;;;18.20;62.70;;;;;;4986004;28;19914;-69
2023/06/17 06:05:41;;;;;;;;;;;18.20;62.70;;;;;;4985637;28;19956;-69
2023/06/17 06:08:07;;;;;;;;;;;18.30;62.70;;;;;;4978435;28;20393;-69
2023/06/17 06:10:33;;;;;;;;;;;18.30;62.50;;;;;;4966916;28;19914;-69
2023/06/17 06:12:59;;;;;;;;;;;18.30;62.70;;;;;;4984544;28;20008;-68
2023/06/17 06:15:25;;;;;;;;;;;18.30;62.60;;;;;;4985903;28;20038;-68
2023/06/17 06:17:51;;;;;;;;;;;18.30;62.60;;;;;;4985802;28;19960;-69
2023/06/17 06:20:17;;;;;;;;;;;18.30;62.60;;;;;;4989804;28;19914;-68
2023/06/17 06:22:42;;;;;;;;;;;18.30;62.50;;;;;;4986480;28;19949;-68
2023/06/17 06:25:08;;;;;;;;;;;18.40;62.50;;;;;;4989055;28;19949;-69
2023/06/17 06:27:34;;;;;;;;;;;18.40;62.40;;;;;;4988991;28;19964;-69
2023/06/17 06:29:59;;;;;;;;;;;18.40;62.50;;;;;;4987918;28;19914;-69
2023/06/17 06:32:25;;;;;;;;;;;18.40;62.40;;;;;;4989264;28;19918;-69
2023/06/17 06:34:50;;;;;;;;;;;18.40;62.40;;;;;;4989047;28;20378;-69
2023/06/17 06:37:16;;;;;;;;;;;18.40;62.40;;;;;;4988745;28;19914;-69
2023/06/17 06:39:42;;;;;;;;;;;18.40;62.20;;;;;;4989120;28;19927;-70
2023/06/17 06:42:08;;;;;;;;;;;18.50;62.30;;;;;;4989294;28;19997;-68
2023/06/17 06:44:33;;;;;;;;;;;18.50;62.20;;;;;;4989017;28;20001;-69
2023/06/17 06:46:59;;;;;;;;;;;18.50;62.10;;;;;;4988766;28;20635;-69
2023/06/17 06:49:25;;;;;;;;;;;18.50;62.10;;;;;;4989048;28;19918;-69
2023/06/17 06:51:50;;;;;;;;;;;18.50;62.10;;;;;;4992502;28;19921;-69
2023/06/17 06:54:16;;;;;;;;;;;18.50;62.00;;;;;;4988952;28;20034;-70
2023/06/17 06:56:41;;;;;;;;;;;18.50;62.00;;;;;;4988719;28;20388;-69
2023/06/17 06:59:07;;;;;;;;;;;18.60;62.00;;;;;;4988739;28;19967;-69
2023/06/17 07:01:32;;;;;;;;;;;18.60;62.00;;;;;;4988592;28;19914;-69
2023/06/17 07:03:58;;;;;;;;;;;18.60;61.90;;;;;;4988638;28;19913;-69
2023/06/17 07:06:23;;;;;;;;;;;18.60;61.80;;;;;;4988234;28;20370;-69
2023/06/17 07:08:49;;;;;;;;;;;18.70;61.90;;;;;;4973777;28;19914;-69
2023/06/17 07:11:14;;;;;;;;;;;18.70;61.70;;;;;;4969621;28;19918;-69
2023/06/17 07:13:40;;;;;;;;;;;18.70;61.70;;;;;;4968334;28;19921;-69
2023/06/17 07:16:06;;;;;;;;;;;18.70;61.60;;;;;;4998810;28;20346;-68
2023/06/17 07:18:31;;;;;;;;;;;18.70;61.60;;;;;;4987679;28;19977;-68
2023/06/17 07:20:57;;;;;;;;;;;18.70;61.50;;;;;;4991472;28;19922;-69
2023/06/17 07:23:23;;;;;;;;;;;18.80;61.60;;;;;;4982049;28;19941;-68
2023/06/17 07:25:48;;;;;;;;;;;18.80;61.50;;;;;;4986821;28;20426;-69
2023/06/17 07:28:14;;;;;;;;;;;18.80;61.50;;;;;;4990166;28;20383;-68
2023/06/17 07:30:40;;;;;;;;;;;18.80;61.50;;;;;;5056352;28;19983;-69
2023/06/17 07:33:05;;;;;;;;;;;18.80;61.40;;;;;;4988336;28;20371;-68
2023/06/17 07:35:31;;;;;;;;;;;18.80;61.30;;;;;;4988042;28;19967;-69
2023/06/17 07:37:56;;;;;;;;;;;18.90;61.30;;;;;;4988051;28;19918;-68
2023/06/17 07:40:22;;;;;;;;;;;18.90;61.20;;;;;;4988166;28;19914;-68
2023/06/17 07:42:47;;;;;;;;;;;18.90;61.30;;;;;;4988140;28;20008;-69
2023/06/17 07:45:13;;;;;;;;;;;18.90;61.40;;;;;;4988260;28;20013;-69
2023/06/17 07:47:39;;;;;;;;;;;18.90;61.30;;;;;;4987883;28;19968;-69
2023/06/17 07:50:05;;;;;;;;;;;19.00;61.10;;;;;;4988288;28;19921;-69
2023/06/17 07:52:32;;;;;;;;;;;19.00;61.10;;;;;;4991267;28;19913;-69
2023/06/17 07:54:58;;;;;;;;;;;19.00;61.00;;;;;;4987949;28;20350;-69
2023/06/17 07:57:23;;;;;;;;;;;19.10;61.10;;;;;;4987333;28;19917;-69
2023/06/17 07:59:49;;;;;;;;;;;19.10;60.90;;;;;;4988011;28;19948;-69
2023/06/17 08:02:16;;;;;;;;;;;19.10;60.80;;;;;;4986953;28;19945;-69
2023/06/17 08:04:41;;;;;;;;;;;19.10;60.80;;;;;;5001547;28;19925;-69
2023/06/17 08:07:07;;;;;;;;;;;19.10;60.70;;;;;;4986329;28;19921;-69
2023/06/17 08:09:32;;;;;;;;;;;19.20;60.70;;;;;;4968567;28;19914;-69
2023/06/17 08:11:58;;;;;;;;;;;19.20;60.60;;;;;;4983130;28;20363;-69
2023/06/17 08:14:24;;;;;;;;;;;19.20;60.50;;;;;;4966577;28;19948;-69
2023/06/17 08:16:49;;;;;;;;;;;19.20;60.60;;;;;;4979341;28;19986;-70
2023/06/17 08:19:15;;;;;;;;;;;19.30;60.60;;;;;;4987226;28;19967;-69
2023/06/17 08:21:45;;;;;;;;;;;19.30;60.50;;;;;;4990738;28;19949;-69
2023/06/17 08:24:26;;;;;;;;;;;19.30;60.40;;;;;;4985571;28;19921;-69
2023/06/17 08:26:52;;;;;;;;;;;19.40;60.30;;;;;;4987446;28;19917;-68
2023/06/17 08:29:18;;;;;;;;;;;19.40;60.30;;;;;;4987236;28;20342;-70
2023/06/17 08:31:45;;;;;;;;;;;19.40;60.20;;;;;;4987634;28;19943;-69
2023/06/17 08:34:12;;;;;;;;;;;19.40;60.00;;;;;;4987794;28;20596;-69
2023/06/17 08:36:38;;;;;;;;;;;19.50;60.00;;;;;;4987352;28;19917;-68
2023/06/17 08:39:04;;;;;;;;;;;19.50;60.00;;;;;;4987354;28;19914;-68
2023/06/17 08:41:30;;;;;;;;;;;19.50;60.00;;;;;;4987096;28;20488;-69
2023/06/17 08:44:00;;;;;;;;;;;19.50;59.80;;;;;;4985813;28;19914;-69
2023/06/17 08:46:26;;;;;;;;;;;19.60;59.70;;;;;;4986834;28;19914;-68
2023/06/17 08:48:52;;;;;;;;;;;19.60;59.70;;;;;;4987080;28;19955;-69
2023/06/17 08:51:18;;;;;;;;;;;19.70;59.60;;;;;;4989246;28;19910;-69
2023/06/17 08:53:44;;;;;;;;;;;19.70;59.40;;;;;;4987170;28;19967;-68
2023/06/17 08:56:11;;;;;;;;;;;19.70;59.10;;;;;;4986886;28;19957;-69
2023/06/17 08:58:37;;;;;;;;;;;19.80;59.30;;;;;;4986906;28;19914;-68
2023/06/17 09:01:04;;;;;;;;;;;19.80;59.20;;;;;;4987049;28;19914;-68
2023/06/17 09:03:31;;;;;;;;;;;19.80;59.30;;;;;;4985554;28;19920;-69
2023/06/17 09:05:57;;;;;;;;;;;19.90;59.20;;;;;;4986848;28;19917;-68
2023/06/17 09:08:22;;;;;;;;;;;19.90;59.10;;;;;;4994232;28;20295;-68
2023/06/17 09:10:48;;;;;;;;;;;19.90;58.90;;;;;;4992772;28;20013;-69
2023/06/17 09:13:13;;;;;;;;;;;20.00;58.80;;;;;;5001023;28;19991;-69
2023/06/17 09:15:40;;;;;;;;;;;20.00;58.80;;;;;;5040529;28;19920;-69
2023/06/17 09:18:07;;;;;;;;;;;20.10;58.80;;;;;;4994393;28;20000;-68
2023/06/17 09:20:33;;;;;;;;;;;20.10;58.80;;;;;;5004840;28;19920;-68
2023/06/17 09:22:59;;;;;;;;;;;20.20;58.80;;;;;;4985805;28;19921;-70
2023/06/17 09:25:25;;;;;;;;;;;20.20;58.70;;;;;;4986233;28;19953;-69
2023/06/17 09:27:51;;;;;;;;;;;20.20;58.40;;;;;;4987031;28;20389;-69
2023/06/17 09:30:17;;;;;;;;;;;20.30;58.30;;;;;;4992057;28;19917;-69
2023/06/17 09:32:44;;;;;;;;;;;20.30;58.30;;;;;;4986798;28;19920;-69
2023/06/17 09:35:15;;;;;;;;;;;20.40;58.50;;;;;;4986827;28;19975;-70
2023/06/17 09:37:42;;;;;;;;;;;20.40;58.40;;;;;;4986785;28;20009;-69
2023/06/17 09:40:09;;;;;;;;;;;20.50;58.30;;;;;;4986899;28;19976;-69
2023/06/17 09:42:34;;;;;;;;;;;20.50;58.10;;;;;;4986309;28;19945;-69
2023/06/17 09:45:03;;;;;;;;;;;20.60;58.00;;;;;;4986477;28;19956;-69
2023/06/17 09:47:32;;;;;;;;;;;20.60;57.90;;;;;;4985851;28;19925;-69
2023/06/17 09:50:02;;;;;;;;;;;20.70;57.90;;;;;;4986557;28;19917;-69
2023/06/17 09:52:30;;;;;;;;;;;20.70;57.90;;;;;;4989761;28;20432;-69
2023/06/17 09:54:56;;;;;;;;;;;20.80;57.70;;;;;;4991188;28;19914;-69
2023/06/17 09:57:22;;;;;;;;;;;20.80;57.60;;;;;;4991372;28;19913;-69
2023/06/17 09:59:50;;;;;;;;;;;20.90;57.50;;;;;;4993074;28;19924;-69
2023/06/17 10:02:16;;;;;;;;;;;21.00;57.20;;;;;;4993030;28;20339;-70
2023/06/17 10:04:43;;;;;;;;;;;21.00;57.50;;;;;;4992820;28;19964;-69
2023/06/17 10:07:08;;;;;;;;;;;21.10;57.20;;;;;;4997001;28;19983;-69
2023/06/17 10:09:34;;;;;;;;;;;21.10;56.40;;;;;;4992659;28;19923;-69
2023/06/17 10:12:00;;;;;;;;;;;21.20;56.80;;;;;;4992750;28;19918;-69
2023/06/17 10:14:33;;;;;;;;;;;21.30;56.50;;;;;;4992395;28;20009;-68
2023/06/17 10:17:00;;;;;;;;;;;21.30;56.60;;;;;;4992247;28;19921;-68
2023/06/17 10:19:29;;;;;;;;;;;21.40;56.90;;;;;;4992506;28;19921;-69
2023/06/17 10:21:55;;;;;;;;;;;21.50;56.20;;;;;;4991011;28;19917;-69
2023/06/17 10:24:22;;;;;;;;;;;21.60;56.70;;;;;;4989579;28;19918;-69
2023/06/17 10:26:51;;;;;;;;;;;21.70;57.20;;;;;;5014160;28;20783;-68
2023/06/17 10:29:17;;;;;;;;;;;21.80;56.60;;;;;;5026720;28;19914;-68
2023/06/17 10:31:45;;;;;;;;;;;21.80;56.50;;;;;;4992256;28;19921;-68
2023/06/17 10:34:14;;;;;;;;;;;21.90;56.80;;;;;;5003311;28;19917;-68
2023/06/17 10:36:39;;;;;;;;;;;22.00;57.00;;;;;;5011710;28;20046;-68
2023/06/17 10:39:06;;;;;;;;;;;22.10;57.40;;;;;;4994701;28;20460;-68
2023/06/17 10:41:38;;;;;;;;;;;22.20;56.70;;;;;;4992237;28;20432;-69
2023/06/17 10:44:22;;;;;;;;;;;22.30;57.40;;;;;;4991963;28;19914;-68
2023/06/17 10:46:50;;;;;;;;;;;22.30;55.50;;;;;;4991644;28;19974;-68
2023/06/17 10:49:19;;;;;;;;;;;22.40;56.20;;;;;;4992148;28;19914;-68
2023/06/17 10:51:45;;;;;;;;;;;22.50;56.10;;;;;;4995864;28;19925;-68
2023/06/17 10:54:10;;;;;;;;;;;22.70;57.10;;;;;;4992069;28;19914;-68
2023/06/17 10:57:05;;;;;;;;;;;22.80;57.00;;;;;;4991893;28;20409;-68
2023/06/17 10:59:31;;;;;;;;;;;22.90;57.00;;;;;;4982742;28;19914;-68
2023/06/17 11:02:07;;;;;;;;;;;23.10;56.60;;;;;;4992021;28;19918;-68
2023/06/17 11:04:35;;;;;;;;;;;23.20;56.80;;;;;;4991661;28;19941;-68
2023/06/17 11:07:02;;;;;;;;;;;23.30;56.80;;;;;;4987205;28;19925;-68
2023/06/17 11:09:28;;;;;;;;;;;23.40;56.70;;;;;;4970041;28;19922;-68
2023/06/17 11:11:54;;;;;;;;;;;23.60;57.00;;;;;;4967768;28;19914;-68
2023/06/17 11:14:20;;;;;;;;;;;23.70;56.30;;;;;;4969183;28;19914;-68
2023/06/17 11:16:46;;;;;;;;;;;23.80;56.80;;;;;;4994517;28;19943;-68
2023/06/17 11:19:15;;;;;;;;;;;23.90;56.50;;;;;;4988512;28;19949;-68
2023/06/17 11:21:41;;;;;;;;;;;24.00;56.40;;;;;;4984780;28;19997;-68
2023/06/17 11:24:07;;;;;;;;;;;24.10;54.80;;;;;;4986694;28;19922;-67
2023/06/17 11:26:33;;;;;;;;;;;24.20;56.70;;;;;;4988006;28;20270;-67
2023/06/17 11:28:59;;;;;;;;;;;24.30;56.40;;;;;;4988580;28;19920;-67
2023/06/17 11:31:28;;;;;;;;;;;24.30;56.50;;;;;;4988432;28;19910;-67
2023/06/17 11:34:00;;;;;;;;;;;24.40;56.70;;;;;;4988258;28;19953;-67
2023/06/17 11:36:26;;;;;;;;;;;24.50;56.40;;;;;;4981612;28;19949;-67
2023/06/17 11:38:57;;;;;;;;;;;24.60;56.50;;;;;;5038026;28;20020;-67
2023/06/17 11:41:23;;;;;;;;;;;24.70;56.70;;;;;;5089882;28;20268;-67
2023/06/17 11:43:51;;;;;;;;;;;24.80;56.00;;;;;;5087174;28;19912;-67
2023/06/17 11:46:23;;;;;;;;;;;24.90;55.30;;;;;;5036037;28;19917;-67
2023/06/17 11:48:49;;;;;;;;;;;25.00;56.20;;;;;;4976057;28;19918;-67
2023/06/17 11:51:18;;;;;;;;;;;25.00;56.50;;;;;;5001319;28;19923;-67
2023/06/17 11:53:45;;;;;;;;;;;25.10;55.50;;;;;;5050456;28;20327;-68
2023/06/17 11:56:11;;;;;;;;;;;25.20;55.30;;;;;;4984652;28;19914;-67
2023/06/17 11:58:39;;;;;;;;;;;25.20;55.60;;;;;;4986221;28;19914;-67
2023/06/17 12:01:05;;;;;;;;;;;25.30;56.40;;;;;;5007338;28;19920;-67
2023/06/17 12:03:31;;;;;;;;;;;25.30;56.50;;;;;;5017138;28;19921;-67
2023/06/17 12:05:57;;;;;;;;;;;25.40;55.90;;;;;;4986293;28;20293;-67
2023/06/17 12:08:35;;;;;;;;;;;25.50;55.80;;;;;;4977019;28;19925;-67
2023/06/17 12:11:06;;;;;;;;;;;25.50;55.50;;;;;;4967419;28;19945;-67
2023/06/17 12:13:39;;;;;;;;;;;25.60;56.50;;;;;;4967151;28;19934;-67
2023/06/17 12:16:08;;;;;;;;;;;25.70;56.50;;;;;;4972551;28;19914;-67
2023/06/17 12:18:36;;;;;;;;;;;25.80;56.40;;;;;;4986317;28;19921;-67
2023/06/17 12:21:08;;;;;;;;;;;25.90;56.00;;;;;;4990377;28;19913;-67
2023/06/17 12:23:34;;;;;;;;;;;25.90;56.30;;;;;;4985776;28;19918;-67
2023/06/17 12:25:59;;;;;;;;;;;26.00;56.10;;;;;;4984717;28;19994;-67
2023/06/17 12:28:25;;;;;;;;;;;26.10;56.20;;;;;;4986178;28;19918;-67
2023/06/17 12:30:50;;;;;;;;;;;26.10;56.20;;;;;;4998080;28;19949;-67
2023/06/17 12:33:16;;;;;;;;;;;26.20;56.20;;;;;;4985861;28;19917;-67
2023/06/17 12:35:41;;;;;;;;;;;26.30;56.30;;;;;;4985972;28;20525;-67
2023/06/17 12:38:08;;;;;;;;;;;26.40;56.20;;;;;;4989537;28;19914;-67
2023/06/17 12:40:33;;;;;;;;;;;26.40;56.10;;;;;;5088690;28;19978;-67
2023/06/17 12:42:59;;;;;;;;;;;26.50;56.20;;;;;;5088434;28;19908;-67
2023/06/17 12:45:25;;;;;;;;;;;26.50;56.10;;;;;;5087285;28;19951;-66
2023/06/17 12:47:51;;;;;;;;;;;26.60;56.10;;;;;;4986100;28;19917;-67
2023/06/17 12:50:17;;;;;;;;;;;26.70;54.20;;;;;;4987104;28;19917;-67
2023/06/17 12:52:43;;;;;;;;;;;26.70;55.50;;;;;;4988322;28;19920;-67
2023/06/17 12:55:08;;;;;;;;;;;26.80;55.90;;;;;;4986051;28;20098;-67
2023/06/17 12:57:34;;;;;;;;;;;26.80;55.90;;;;;;4985673;28;19914;-66
2023/06/17 13:00:00;;;;;;;;;;;26.90;56.10;;;;;;4986256;28;19910;-67
2023/06/17 13:02:25;;;;;;;;;;;27.00;56.00;;;;;;4966801;28;19963;-67
2023/06/17 13:04:51;;;;;;;;;;;27.00;56.10;;;;;;4972830;28;19917;-67
2023/06/17 13:07:17;;;;;;;;;;;27.10;56.00;;;;;;4984269;28;19922;-67
2023/06/17 13:09:43;;;;;;;;;;;27.10;55.60;;;;;;4965273;28;19956;-66
2023/06/17 13:12:09;;;;;;;;;;;27.20;55.60;;;;;;4966285;28;20008;-67
2023/06/17 13:14:34;;;;;;;;;;;27.30;55.50;;;;;;4992401;28;19914;-66
2023/06/17 13:17:00;;;;;;;;;;;27.40;55.10;;;;;;4983870;28;19914;-67
2023/06/17 13:19:26;;;;;;;;;;;27.40;55.60;;;;;;4985935;28;19913;-67
2023/06/17 13:21:52;;;;;;;;;;;27.40;55.80;;;;;;4988878;28;19967;-67
2023/06/17 13:24:18;;;;;;;;;;;27.50;55.80;;;;;;4985303;28;19925;-67
2023/06/17 13:26:43;;;;;;;;;;;27.60;55.40;;;;;;4985576;28;19924;-67
2023/06/17 13:29:09;;;;;;;;;;;27.60;55.40;;;;;;4984414;28;19999;-66
2023/06/17 13:31:34;;;;;;;;;;;27.70;55.40;;;;;;4991099;28;19914;-66
2023/06/17 13:34:00;;;;;;;;;;;27.70;55.20;;;;;;4985465;28;19918;-66
2023/06/17 13:36:26;;;;;;;;;;;27.70;55.40;;;;;;4985237;28;19956;-66
2023/06/17 13:38:51;;;;;;;;;;;27.70;55.50;;;;;;4985149;28;20016;-66
2023/06/17 13:41:17;;;;;;;;;;;27.80;55.40;;;;;;4985527;28;20289;-66
2023/06/17 13:43:43;;;;;;;;;;;27.80;55.30;;;;;;4985320;28;19917;-66
2023/06/17 13:46:09;;;;;;;;;;;27.80;55.40;;;;;;5013188;28;20263;-66
2023/06/17 13:48:34;;;;;;;;;;;27.90;54.90;;;;;;4985267;28;19969;-67
2023/06/17 13:51:00;;;;;;;;;;;27.90;55.00;;;;;;4988888;28;19914;-66
2023/06/17 13:53:26;;;;;;;;;;;27.90;55.20;;;;;;4983869;28;19984;-66
2023/06/17 13:55:52;;;;;;;;;;;28.00;54.70;;;;;;4985113;28;19922;-66
2023/06/17 13:58:18;;;;;;;;;;;28.00;54.50;;;;;;4985241;28;20335;-66
2023/06/17 14:00:43;;;;;;;;;;;28.10;54.70;;;;;;4985066;28;20304;-66
2023/06/17 14:03:09;;;;;;;;;;;28.20;54.80;;;;;;4984830;28;19996;-66
2023/06/17 14:05:34;;;;;;;;;;;28.20;54.60;;;;;;4984937;28;19946;-66
2023/06/17 14:08:00;;;;;;;;;;;28.20;54.40;;;;;;4982759;28;19918;-66
2023/06/17 14:10:26;;;;;;;;;;;28.30;54.50;;;;;;5005355;28;20370;-66
2023/06/17 14:12:52;;;;;;;;;;;28.20;54.10;;;;;;5005365;28;20517;-67